createdAt,value
2023-02-06T00:00:40.529Z,4.25
2023-02-06T00:03:07.968Z,4.29
2023-02-06T00:05:35.812Z,4.30
2023-02-06T00:08:03.488Z,4.45
2023-02-06T00:10:31.021Z,4.41
2023-02-06T00:13:00.147Z,4.45
2023-02-06T00:15:27.602Z,4.30
2023-02-06T00:20:43.841Z,4.48
2023-02-06T00:23:11.284Z,4.34
2023-02-06T00:25:38.784Z,4.23
2023-02-06T00:28:07.834Z,4.25
2023-02-06T00:30:35.450Z,4.19
2023-02-06T00:33:02.952Z,4.01
2023-02-06T00:35:30.469Z,3.98
2023-02-06T00:37:59.662Z,3.70
2023-02-06T00:40:28.220Z,3.68
2023-02-06T00:42:55.649Z,3.75
2023-02-06T00:45:24.411Z,3.97
2023-02-06T00:47:51.877Z,3.99
2023-02-06T00:50:19.610Z,4.06
2023-02-06T00:52:47.287Z,4.12
2023-02-06T00:55:15.023Z,4.16
2023-02-06T00:57:42.462Z,4.06
2023-02-06T01:00:11.539Z,4.22
2023-02-06T01:02:40.332Z,4.24
2023-02-06T01:05:08.470Z,4.31
2023-02-06T01:07:38.563Z,4.34
2023-02-06T01:10:07.737Z,4.24
2023-02-06T01:12:35.387Z,4.25
2023-02-06T01:15:02.969Z,4.16
2023-02-06T01:17:32.830Z,4.18
2023-02-06T01:20:02.017Z,4.22
2023-02-06T01:22:29.703Z,4.22
2023-02-06T01:24:57.182Z,4.14
2023-02-06T01:27:24.635Z,3.99
2023-02-06T01:29:52.056Z,3.95
2023-02-06T01:32:19.662Z,3.84
2023-02-06T01:34:48.711Z,3.86
2023-02-06T01:37:17.703Z,3.86
2023-02-06T01:39:45.212Z,3.99
2023-02-06T01:42:18.846Z,4.20
2023-02-06T01:44:46.349Z,4.21
2023-02-06T01:50:12.898Z,4.33
2023-02-06T01:52:41.736Z,4.43
2023-02-06T01:55:09.306Z,4.48
2023-02-06T01:57:36.740Z,4.50
2023-02-06T02:00:09.651Z,4.44
2023-02-06T02:02:40.749Z,4.01
2023-02-06T02:05:09.005Z,4.10
2023-02-06T02:07:37.727Z,3.58
2023-02-06T02:10:07.094Z,3.75
2023-02-06T02:12:34.629Z,3.59
2023-02-06T02:15:02.162Z,3.76
2023-02-06T02:17:36.044Z,3.85
2023-02-06T02:20:34.334Z,3.49
2023-02-06T02:23:07.561Z,3.46
2023-02-06T02:25:52.093Z,3.65
2023-02-06T02:28:31.751Z,3.49
2023-02-06T02:31:13.168Z,3.41
2023-02-06T02:34:02.453Z,3.49
2023-02-06T02:36:35.242Z,3.37
2023-02-06T02:39:08.747Z,3.29
2023-02-06T02:41:41.194Z,3.08
2023-02-06T02:44:10.820Z,3.09
2023-02-06T02:46:39.779Z,2.86
2023-02-06T02:49:10.347Z,2.72
2023-02-06T02:51:39.924Z,2.70
2023-02-06T02:54:07.409Z,2.89
2023-02-06T02:56:34.931Z,2.78
2023-02-06T02:59:06.926Z,2.79
2023-02-06T03:01:37.699Z,2.89
2023-02-06T03:04:08.014Z,3.00
2023-02-06T03:06:45.799Z,2.96
2023-02-06T03:09:21.519Z,3.12
2023-02-06T03:11:55.160Z,3.14
2023-02-06T03:17:32.074Z,2.91
2023-02-06T03:20:00.788Z,2.77
2023-02-06T03:22:30.093Z,2.68
2023-02-06T03:24:58.726Z,1.91
2023-02-06T03:27:27.265Z,1.85
2023-02-06T03:29:55.830Z,2.22
2023-02-06T03:32:26.249Z,2.21
2023-02-06T03:34:56.980Z,2.10
2023-02-06T03:37:25.355Z,2.07
2023-02-06T03:39:54.531Z,2.14
2023-02-06T03:42:23.224Z,2.13
2023-02-06T03:44:52.679Z,2.04
2023-02-06T03:47:21.310Z,1.80
2023-02-06T03:49:49.052Z,1.64
2023-02-06T03:52:20.083Z,1.18
2023-02-06T03:54:50.522Z,1.53
2023-02-06T03:57:20.377Z,1.81
2023-02-06T03:59:48.249Z,1.77
2023-02-06T04:02:17.126Z,1.79
2023-02-06T04:04:47.422Z,0.95
2023-02-06T04:07:18.923Z,1.45
2023-02-06T04:09:46.541Z,1.70
2023-02-06T04:12:15.441Z,1.78
2023-02-06T04:14:44.336Z,1.93
2023-02-06T04:17:12.365Z,1.97
2023-02-06T04:19:39.936Z,1.92
2023-02-06T04:22:07.905Z,1.81
2023-02-06T04:24:36.671Z,1.74
2023-02-06T04:27:04.106Z,1.65
2023-02-06T04:29:31.740Z,1.54
2023-02-06T04:34:50.255Z,1.31
2023-02-06T04:37:17.731Z,1.15
2023-02-06T04:39:45.175Z,0.97
2023-02-06T04:42:12.620Z,1.17
2023-02-06T04:44:40.083Z,1.18
2023-02-06T04:47:08.501Z,1.09
2023-02-06T04:49:35.915Z,0.96
2023-02-06T04:52:05.033Z,0.89
2023-02-06T04:54:32.867Z,0.47
2023-02-06T04:57:00.373Z,0.16
2023-02-06T04:59:28.048Z,0.45
2023-02-06T05:04:53.940Z,0.02
2023-02-06T05:07:22.771Z,0.45
2023-02-06T05:09:50.191Z,0.62
2023-02-06T05:12:17.609Z,0.63
2023-02-06T05:17:40.287Z,0.58
2023-02-06T05:20:08.486Z,0.65
2023-02-06T05:22:59.986Z,0.68
2023-02-06T05:25:28.803Z,0.73
2023-02-06T05:27:57.294Z,0.72
2023-02-06T05:30:24.864Z,0.75
2023-02-06T05:32:52.753Z,0.70
2023-02-06T05:35:20.245Z,0.64
2023-02-06T05:37:47.638Z,0.63
2023-02-06T05:40:15.418Z,0.66
2023-02-06T05:42:44.423Z,0.64
2023-02-06T05:45:11.833Z,0.65
2023-02-06T05:47:39.267Z,0.62
2023-02-06T05:50:07.291Z,0.63
2023-02-06T05:52:34.839Z,0.64
2023-02-06T05:55:02.295Z,0.64
2023-02-06T05:57:29.716Z,0.66
2023-02-06T06:02:36.243Z,0.73
2023-02-06T06:05:03.798Z,0.61
2023-02-06T06:07:31.551Z,0.82
2023-02-06T06:09:59.054Z,0.97
2023-02-06T06:12:26.495Z,0.98
2023-02-06T06:14:56.208Z,0.97
2023-02-06T06:17:23.738Z,1.12
2023-02-06T06:19:52.497Z,1.20
2023-02-06T06:22:19.946Z,1.17
2023-02-06T06:24:47.377Z,1.18
2023-02-06T06:27:14.822Z,1.32
2023-02-06T06:29:42.249Z,1.27
2023-02-06T06:32:09.707Z,1.26
2023-02-06T06:34:37.121Z,1.41
2023-02-06T06:37:06.080Z,1.46
2023-02-06T06:39:33.554Z,1.50
2023-02-06T06:42:00.967Z,1.55
2023-02-06T06:44:28.455Z,1.57
2023-02-06T06:46:55.854Z,1.59
2023-02-06T06:52:24.343Z,1.50
2023-02-06T06:54:52.876Z,1.69
2023-02-06T06:57:20.846Z,1.72
2023-02-06T06:59:48.267Z,1.74
2023-02-06T07:02:16.270Z,1.67
2023-02-06T07:04:43.834Z,1.76
2023-02-06T07:07:11.284Z,1.73
2023-02-06T07:09:40.048Z,1.68
2023-02-06T07:12:07.993Z,1.88
2023-02-06T07:14:35.471Z,2.00
2023-02-06T07:17:03.152Z,2.02
2023-02-06T07:19:30.600Z,1.92
2023-02-06T07:21:58.044Z,2.19
2023-02-06T07:24:25.484Z,2.28
2023-02-06T07:26:54.232Z,2.37
2023-02-06T07:29:21.637Z,2.44
2023-02-06T07:31:49.390Z,2.53
2023-02-06T07:37:05.616Z,2.53
2023-02-06T07:39:33.069Z,2.67
2023-02-06T07:42:01.821Z,2.57
2023-02-06T07:44:59.132Z,2.73
2023-02-06T07:47:26.565Z,2.71
2023-02-06T07:52:56.541Z,2.80
2023-02-06T07:55:24.010Z,2.72
2023-02-06T07:57:52.760Z,2.58
2023-02-06T08:00:20.556Z,2.52
2023-02-06T08:02:47.973Z,2.60
2023-02-06T08:05:15.440Z,2.81
2023-02-06T08:10:45.417Z,3.15
2023-02-06T08:13:14.165Z,2.98
2023-02-06T08:15:41.916Z,2.98
2023-02-06T08:18:09.403Z,2.99
2023-02-06T08:20:36.801Z,2.78
2023-02-06T08:23:04.222Z,2.74
2023-02-06T08:25:31.647Z,2.63
2023-02-06T08:28:00.785Z,2.91
2023-02-06T08:30:29.640Z,3.31
2023-02-06T08:32:57.159Z,3.75
2023-02-06T08:35:24.576Z,3.81
2023-02-06T08:37:51.980Z,3.73
2023-02-06T08:40:21.054Z,3.69
2023-02-06T08:42:51.274Z,3.83
2023-02-06T08:45:18.832Z,3.87
2023-02-06T08:47:47.675Z,4.34
2023-02-06T08:50:15.281Z,4.62
2023-02-06T08:52:42.766Z,4.81
2023-02-06T08:55:10.202Z,5.04
2023-02-06T08:57:37.665Z,5.04
2023-02-06T09:00:05.141Z,4.88
2023-02-06T09:02:32.745Z,5.16
2023-02-06T09:05:01.536Z,5.20
2023-02-06T09:07:29.011Z,5.27
2023-02-06T09:09:56.411Z,5.15
2023-02-06T09:15:12.403Z,5.02
2023-02-06T09:17:39.825Z,5.14
2023-02-06T09:20:10.003Z,5.15
2023-02-06T09:25:40.526Z,5.36
2023-02-06T09:28:07.957Z,5.18
2023-02-06T09:30:35.443Z,5.66
2023-02-06T09:33:02.870Z,5.49
2023-02-06T09:35:31.778Z,5.70
2023-02-06T09:37:59.227Z,5.75
2023-02-06T09:40:27.983Z,5.93
2023-02-06T09:42:55.844Z,5.94
2023-02-06T09:48:28.433Z,5.94
2023-02-06T09:51:04.704Z,5.79
2023-02-06T09:53:37.920Z,5.58
2023-02-06T09:56:15.570Z,5.37
2023-02-06T09:58:47.319Z,4.43
2023-02-06T10:01:19.229Z,4.90
2023-02-06T10:03:55.341Z,5.54
2023-02-06T10:06:26.866Z,5.96
2023-02-06T10:09:01.265Z,6.13
2023-02-06T10:11:47.708Z,5.90
2023-02-06T10:14:22.105Z,5.39
2023-02-06T10:16:52.056Z,5.53
2023-02-06T10:19:24.625Z,5.61
2023-02-06T10:21:56.977Z,5.78
2023-02-06T10:24:32.956Z,5.87
2023-02-06T10:27:02.772Z,5.95
2023-02-06T10:29:32.959Z,6.26
2023-02-06T10:32:10.031Z,6.37
2023-02-06T10:34:57.959Z,6.53
2023-02-06T10:37:57.260Z,6.65
2023-02-06T10:40:36.652Z,6.72
2023-02-06T10:43:11.595Z,7.06
2023-02-06T10:45:44.853Z,6.96
2023-02-06T10:48:21.351Z,6.68
2023-02-06T10:50:55.921Z,6.79
2023-02-06T10:53:27.459Z,6.75
2023-02-06T10:55:57.774Z,6.55
2023-02-06T10:58:27.002Z,6.42
2023-02-06T11:00:55.635Z,6.52
2023-02-06T11:03:26.895Z,6.67
2023-02-06T11:05:54.636Z,6.79
2023-02-06T11:08:26.693Z,6.78
2023-02-06T11:10:54.562Z,7.09
2023-02-06T11:13:26.766Z,7.09
2023-02-06T11:15:58.958Z,7.27
2023-02-06T11:18:29.860Z,7.20
2023-02-06T11:20:57.815Z,7.08
2023-02-06T11:23:28.399Z,7.10
2023-02-06T11:26:04.777Z,7.30
2023-02-06T11:28:34.185Z,6.92
2023-02-06T11:31:03.516Z,6.72
2023-02-06T11:33:37.884Z,6.58
2023-02-06T11:36:06.938Z,6.43
2023-02-06T11:38:35.782Z,6.37
2023-02-06T11:41:04.801Z,6.14
2023-02-06T11:43:33.742Z,6.00
2023-02-06T11:46:13.308Z,6.15
2023-02-06T11:48:42.062Z,5.79
2023-02-06T11:51:10.293Z,5.73
2023-02-06T11:53:39.227Z,5.93
2023-02-06T11:56:16.950Z,5.98
2023-02-06T11:58:44.760Z,5.73
2023-02-06T12:01:19.907Z,5.67
2023-02-06T12:03:55.042Z,5.54
2023-02-06T12:06:28.509Z,5.73
2023-02-06T12:08:58.533Z,5.82
2023-02-06T12:11:27.198Z,6.06
2023-02-06T12:13:58.726Z,6.15
2023-02-06T12:16:27.120Z,6.45
2023-02-06T12:18:56.160Z,6.39
2023-02-06T12:21:29.948Z,6.37
2023-02-06T12:24:01.524Z,6.36
2023-02-06T12:26:30.667Z,6.06
2023-02-06T12:29:01.435Z,6.18
2023-02-06T12:31:37.511Z,6.28
2023-02-06T12:34:12.416Z,6.02
2023-02-06T12:39:33.258Z,6.28
2023-02-06T12:42:17.009Z,6.51
2023-02-06T12:44:50.985Z,6.66
2023-02-06T12:47:24.129Z,6.94
2023-02-06T12:49:56.774Z,7.08
2023-02-06T12:52:30.725Z,7.13
2023-02-06T12:55:09.186Z,7.12
2023-02-06T12:57:38.592Z,7.34
2023-02-06T13:00:21.648Z,7.13
2023-02-06T13:03:05.675Z,7.14
2023-02-06T13:05:35.979Z,7.21
2023-02-06T13:08:07.165Z,6.98
2023-02-06T13:10:37.228Z,6.91
2023-02-06T13:13:05.046Z,6.76
2023-02-06T13:15:36.040Z,6.73
2023-02-06T13:18:03.808Z,6.82
2023-02-06T13:20:33.437Z,6.94
2023-02-06T13:23:23.251Z,6.66
2023-02-06T13:25:52.557Z,6.74
2023-02-06T13:28:58.611Z,6.86
2023-02-06T13:31:29.066Z,6.49
2023-02-06T13:33:59.902Z,6.44
2023-02-06T13:36:42.301Z,6.64
2023-02-06T13:39:25.210Z,6.28
2023-02-06T13:41:54.469Z,6.03
2023-02-06T13:44:25.823Z,6.21
2023-02-06T13:47:19.315Z,6.16
2023-02-06T13:50:26.183Z,6.53
2023-02-06T13:53:17.782Z,6.60
2023-02-06T13:55:53.870Z,6.71
2023-02-06T13:58:37.211Z,6.69
2023-02-06T14:01:05.788Z,6.69
2023-02-06T14:06:37.744Z,6.43
2023-02-06T14:09:14.191Z,6.01
2023-02-06T14:12:07.223Z,5.60
2023-02-06T14:14:47.103Z,5.89
2023-02-06T14:17:22.068Z,5.77
2023-02-06T14:19:55.047Z,6.05
2023-02-06T14:22:31.269Z,6.03
2023-02-06T14:25:17.907Z,6.13
2023-02-06T14:27:54.987Z,6.24
2023-02-06T14:33:26.200Z,6.51
2023-02-06T14:36:03.452Z,6.80
2023-02-06T14:38:44.462Z,6.72
2023-02-06T14:41:12.054Z,7.11
2023-02-06T14:43:41.960Z,7.08
2023-02-06T14:46:12.783Z,6.80
2023-02-06T14:48:46.236Z,6.71
2023-02-06T14:51:25.385Z,6.71
2023-02-06T14:53:55.454Z,6.29
2023-02-06T14:56:28.176Z,5.83
2023-02-06T14:58:55.766Z,5.61
2023-02-06T15:04:28.135Z,5.01
2023-02-06T15:06:57.175Z,4.90
2023-02-06T15:09:28.102Z,4.92
2023-02-06T15:11:57.288Z,5.01
2023-02-06T15:14:26.689Z,4.88
2023-02-06T15:16:56.666Z,4.85
2023-02-06T15:22:28.029Z,4.82
2023-02-06T15:25:01.939Z,4.57
2023-02-06T15:27:31.442Z,4.36
2023-02-06T15:29:59.475Z,4.47
2023-02-06T15:32:30.246Z,4.64
2023-02-06T15:34:57.965Z,4.73
2023-02-06T15:37:30.000Z,4.52
2023-02-06T15:40:00.838Z,4.34
2023-02-06T15:42:28.265Z,4.59
2023-02-06T15:44:55.769Z,4.53
2023-02-06T15:47:23.369Z,4.63
2023-02-06T15:49:51.751Z,4.63
2023-02-06T15:52:35.438Z,4.37
2023-02-06T15:58:06.286Z,4.01
2023-02-06T16:00:35.876Z,3.96
2023-02-06T16:03:05.767Z,4.15
2023-02-06T16:05:35.507Z,4.18
2023-02-06T16:10:54.325Z,4.08
2023-02-06T16:13:24.462Z,3.70
2023-02-06T16:16:08.294Z,3.53
2023-02-06T16:18:39.532Z,3.56
2023-02-06T16:21:21.061Z,3.65
2023-02-06T16:23:49.674Z,3.64
2023-02-06T16:26:20.519Z,3.42
2023-02-06T16:29:01.121Z,3.19
2023-02-06T16:31:30.602Z,3.34
2023-02-06T16:34:02.977Z,3.35
2023-02-06T16:36:32.125Z,3.26
2023-02-06T16:39:04.068Z,3.21
2023-02-06T16:41:35.195Z,3.04
2023-02-06T16:44:04.649Z,2.99
2023-02-06T16:46:32.244Z,3.01
2023-02-06T16:52:02.594Z,2.81
2023-02-06T16:54:31.815Z,2.54
2023-02-06T16:59:38.589Z,2.48
2023-02-06T17:02:13.438Z,2.48
2023-02-06T17:04:41.078Z,2.40
2023-02-06T17:07:13.683Z,2.37
2023-02-06T17:09:41.351Z,2.33
2023-02-06T17:12:12.701Z,2.21
2023-02-06T17:14:42.628Z,2.07
2023-02-06T17:17:12.289Z,1.91
2023-02-06T17:19:39.982Z,1.65
2023-02-06T17:22:08.115Z,1.52
2023-02-06T17:24:35.914Z,1.58
2023-02-06T17:27:03.427Z,1.56
2023-02-06T17:29:32.721Z,1.46
2023-02-06T17:32:02.855Z,1.27
2023-02-06T17:37:28.790Z,0.73
2023-02-06T17:39:56.254Z,0.73
2023-02-06T17:42:25.503Z,0.51
2023-02-06T17:44:54.958Z,0.63
2023-02-06T17:47:24.233Z,0.42
2023-02-06T17:49:51.700Z,0.29
2023-02-06T17:52:19.330Z,0.33
2023-02-06T17:54:46.765Z,0.52
2023-02-06T17:57:14.495Z,0.55
2023-02-06T17:59:42.089Z,0.66
2023-02-06T18:02:12.532Z,0.64
2023-02-06T18:04:41.547Z,0.54
2023-02-06T18:07:09.142Z,0.54
2023-02-06T18:09:36.571Z,0.58
2023-02-06T18:12:04.306Z,0.56
2023-02-06T18:14:32.073Z,0.47
2023-02-06T18:16:59.549Z,0.33
2023-02-06T18:19:27.004Z,0.31
2023-02-06T18:21:55.886Z,0.35
2023-02-06T18:24:23.351Z,0.10
2023-02-06T18:26:50.780Z,0.19
2023-02-06T18:29:18.249Z,-0.40
2023-02-06T18:31:46.481Z,-0.80
2023-02-06T18:34:13.947Z,-1.08
2023-02-06T18:36:41.483Z,-0.57
2023-02-06T18:39:11.244Z,-0.18
2023-02-06T18:41:56.340Z,0.03
2023-02-06T18:44:24.827Z,0.15
2023-02-06T18:46:52.429Z,0.13
2023-02-06T18:49:20.155Z,0.30
2023-02-06T18:51:47.574Z,0.28
2023-02-06T18:54:16.345Z,0.53
2023-02-06T18:56:45.338Z,0.34
2023-02-06T18:59:12.816Z,0.41
2023-02-06T19:01:40.626Z,0.39
2023-02-06T19:04:08.059Z,0.42
2023-02-06T19:06:36.595Z,0.37
2023-02-06T19:09:06.883Z,0.40
2023-02-06T19:11:36.012Z,0.47
2023-02-06T19:14:04.666Z,0.31
2023-02-06T19:16:32.676Z,0.38
2023-02-06T19:19:01.469Z,0.36
2023-02-06T19:21:28.948Z,0.29
2023-02-06T19:26:55.294Z,0.25
2023-02-06T19:29:34.616Z,0.28
2023-02-06T19:32:03.030Z,0.24
2023-02-06T19:34:30.517Z,0.60
2023-02-06T19:36:57.987Z,0.54
2023-02-06T19:39:25.925Z,0.68
2023-02-06T19:41:54.667Z,0.61
2023-02-06T19:44:22.194Z,0.42
2023-02-06T19:46:49.607Z,0.59
2023-02-06T19:49:17.038Z,0.50
2023-02-06T19:51:45.263Z,0.52
2023-02-06T19:54:12.860Z,0.42
2023-02-06T19:59:39.428Z,0.18
2023-02-06T20:02:06.852Z,-0.04
2023-02-06T20:04:36.274Z,-0.02
2023-02-06T20:07:03.751Z,-0.19
2023-02-06T20:09:31.742Z,-0.48
2023-02-06T20:11:59.498Z,-0.89
2023-02-06T20:14:27.178Z,-0.88
2023-02-06T20:16:56.035Z,-1.15
2023-02-06T20:19:25.474Z,-1.42
2023-02-06T20:21:55.291Z,-1.64
2023-02-06T20:24:24.386Z,-1.26
2023-02-06T20:26:56.012Z,-1.30
2023-02-06T20:29:25.282Z,-1.48
2023-02-06T20:34:43.952Z,-1.10
2023-02-06T20:37:11.396Z,-1.15
2023-02-06T20:39:39.119Z,-1.09
2023-02-06T20:42:06.579Z,-1.05
2023-02-06T20:44:34.059Z,-1.00
2023-02-06T20:47:01.902Z,-1.60
2023-02-06T20:49:31.118Z,-1.95
2023-02-06T20:52:00.234Z,-1.48
2023-02-06T20:54:28.181Z,-2.12
2023-02-06T20:56:55.912Z,-1.92
2023-02-06T20:59:23.349Z,-1.78
2023-02-06T21:01:50.790Z,-1.48
2023-02-06T21:04:19.205Z,-1.33
2023-02-06T21:06:47.800Z,-2.18
2023-02-06T21:09:17.023Z,-2.00
2023-02-06T21:11:46.144Z,-2.55
2023-02-06T21:14:14.189Z,-2.40
2023-02-06T21:19:42.551Z,-2.06
2023-02-06T21:22:10.042Z,-2.27
2023-02-06T21:24:38.819Z,-2.12
2023-02-06T21:27:06.258Z,-1.79
2023-02-06T21:32:25.083Z,-2.68
2023-02-06T21:34:52.656Z,-2.60
2023-02-06T21:37:22.409Z,-2.17
2023-02-06T21:39:51.176Z,-1.89
2023-02-06T21:42:20.774Z,-1.91
2023-02-06T21:44:48.684Z,-2.07
2023-02-06T21:47:16.233Z,-2.07
2023-02-06T21:49:43.693Z,-2.20
2023-02-06T21:55:04.186Z,-2.19
2023-02-06T22:00:35.559Z,-2.34
2023-02-06T22:03:03.057Z,-2.11
2023-02-06T22:05:30.750Z,-2.06
2023-02-06T22:07:58.879Z,-2.11
2023-02-06T22:10:27.668Z,-2.06
2023-02-06T22:12:55.203Z,-2.10
2023-02-06T22:15:22.807Z,-2.89
2023-02-06T22:17:50.281Z,-3.13
2023-02-06T22:20:17.889Z,-3.05
2023-02-06T22:22:45.310Z,-3.22
2023-02-06T22:25:12.760Z,-2.92
2023-02-06T22:27:41.808Z,-3.50
2023-02-06T22:30:10.492Z,-3.34
2023-02-06T22:32:38.189Z,-2.85
2023-02-06T22:35:06.727Z,-2.57
2023-02-06T22:37:34.874Z,-2.43
2023-02-06T22:40:02.293Z,-2.37
2023-02-06T22:42:29.883Z,-3.22
2023-02-06T22:44:58.611Z,-3.20
2023-02-06T22:47:26.054Z,-2.70
2023-02-06T22:49:53.490Z,-2.50
2023-02-06T22:52:38.384Z,-3.13
2023-02-06T22:55:06.612Z,-2.96
2023-02-06T22:57:36.982Z,-2.92
2023-02-06T23:00:11.451Z,-2.81
2023-02-06T23:02:39.206Z,-2.58
2023-02-06T23:05:10.412Z,-3.11
2023-02-06T23:10:26.556Z,-2.83
2023-02-06T23:12:53.960Z,-2.53
2023-02-06T23:18:02.434Z,-2.30
2023-02-06T23:20:29.890Z,-2.53
2023-02-06T23:22:57.325Z,-2.37
2023-02-06T23:25:24.820Z,-2.32
2023-02-06T23:27:52.329Z,-2.56
2023-02-06T23:30:20.179Z,-3.28
2023-02-06T23:32:47.680Z,-3.88
2023-02-06T23:35:16.531Z,-3.52
2023-02-06T23:37:43.956Z,-3.24
2023-02-06T23:40:11.806Z,-2.96
2023-02-06T23:45:38.216Z,-2.44
2023-02-06T23:50:55.809Z,-2.98
2023-02-06T23:53:23.307Z,-3.00
2023-02-06T23:55:50.791Z,-2.74
